sensor_id;sensor_type;location;lat;lon;timestamp;P1;durP1;ratioP1;P2;durP2;ratioP2
12776;SDS011;6452;41.572;23.732;2023-03-22T00:00:03;4.30;;;3.90;;
12776;SDS011;6452;41.572;23.732;2023-03-22T00:02:30;3.50;;;3.30;;
12776;SDS011;6452;41.572;23.732;2023-03-22T00:04:57;3.63;;;3.42;;
12776;SDS011;6452;41.572;23.732;2023-03-22T00:07:23;7.25;;;4.68;;
12776;SDS011;6452;41.572;23.732;2023-03-22T00:09:51;5.65;;;5.15;;
12776;SDS011;6452;41.572;23.732;2023-03-22T00:12:17;5.70;;;4.80;;
12776;SDS011;6452;41.572;23.732;2023-03-22T00:14:43;5.25;;;4.25;;
12776;SDS011;6452;41.572;23.732;2023-03-22T00:17:10;3.75;;;3.45;;
12776;SDS011;6452;41.572;23.732;2023-03-22T00:19:36;3.75;;;3.45;;
12776;SDS011;6452;41.572;23.732;2023-03-22T00:22:02;4.13;;;3.83;;
12776;SDS011;6452;41.572;23.732;2023-03-22T00:24:30;5.00;;;3.80;;
12776;SDS011;6452;41.572;23.732;2023-03-22T00:26:57;3.67;;;3.38;;
12776;SDS011;6452;41.572;23.732;2023-03-22T00:29:23;3.50;;;3.30;;
12776;SDS011;6452;41.572;23.732;2023-03-22T00:31:49;4.10;;;3.80;;
12776;SDS011;6452;41.572;23.732;2023-03-22T00:34:16;5.45;;;3.25;;
12776;SDS011;6452;41.572;23.732;2023-03-22T00:36:42;3.88;;;3.53;;
12776;SDS011;6452;41.572;23.732;2023-03-22T00:39:08;4.15;;;3.33;;
12776;SDS011;6452;41.572;23.732;2023-03-22T00:41:34;3.38;;;3.10;;
12776;SDS011;6452;41.572;23.732;2023-03-22T00:44:00;4.40;;;4.00;;
12776;SDS011;6452;41.572;23.732;2023-03-22T00:46:26;4.40;;;4.00;;
12776;SDS011;6452;41.572;23.732;2023-03-22T00:48:52;9.77;;;5.70;;
12776;SDS011;6452;41.572;23.732;2023-03-22T00:51:19;8.63;;;6.43;;
12776;SDS011;6452;41.572;23.732;2023-03-22T00:53:44;78.15;;;39.25;;
12776;SDS011;6452;41.572;23.732;2023-03-22T00:56:14;51.42;;;30.92;;
12776;SDS011;6452;41.572;23.732;2023-03-22T00:58:40;20.98;;;14.60;;
12776;SDS011;6452;41.572;23.732;2023-03-22T01:01:06;13.57;;;10.15;;
12776;SDS011;6452;41.572;23.732;2023-03-22T01:03:32;15.00;;;11.50;;
12776;SDS011;6452;41.572;23.732;2023-03-22T01:05:59;12.10;;;8.40;;
12776;SDS011;6452;41.572;23.732;2023-03-22T01:08:25;9.60;;;7.72;;
12776;SDS011;6452;41.572;23.732;2023-03-22T01:10:57;6.82;;;6.13;;
12776;SDS011;6452;41.572;23.732;2023-03-22T01:13:24;6.72;;;5.95;;
12776;SDS011;6452;41.572;23.732;2023-03-22T01:15:51;16.35;;;8.95;;
12776;SDS011;6452;41.572;23.732;2023-03-22T01:18:17;69.93;;;46.03;;
12776;SDS011;6452;41.572;23.732;2023-03-22T01:20:43;38.00;;;22.45;;
12776;SDS011;6452;41.572;23.732;2023-03-22T01:23:09;37.97;;;21.10;;
12776;SDS011;6452;41.572;23.732;2023-03-22T01:25:36;16.20;;;9.50;;
12776;SDS011;6452;41.572;23.732;2023-03-22T01:28:02;9.43;;;7.53;;
12776;SDS011;6452;41.572;23.732;2023-03-22T01:30:31;14.70;;;9.40;;
12776;SDS011;6452;41.572;23.732;2023-03-22T01:32:57;14.95;;;11.25;;
12776;SDS011;6452;41.572;23.732;2023-03-22T01:35:23;31.45;;;18.65;;
12776;SDS011;6452;41.572;23.732;2023-03-22T01:37:49;14.05;;;9.90;;
12776;SDS011;6452;41.572;23.732;2023-03-22T01:40:15;8.63;;;6.15;;
12776;SDS011;6452;41.572;23.732;2023-03-22T01:42:45;7.43;;;6.50;;
12776;SDS011;6452;41.572;23.732;2023-03-22T01:47:46;10.27;;;6.72;;
12776;SDS011;6452;41.572;23.732;2023-03-22T01:50:13;9.35;;;7.43;;
12776;SDS011;6452;41.572;23.732;2023-03-22T01:52:39;8.40;;;7.55;;
12776;SDS011;6452;41.572;23.732;2023-03-22T01:55:05;6.95;;;6.35;;
12776;SDS011;6452;41.572;23.732;2023-03-22T01:57:33;6.90;;;6.20;;
12776;SDS011;6452;41.572;23.732;2023-03-22T02:00:05;8.52;;;6.82;;
12776;SDS011;6452;41.572;23.732;2023-03-22T02:02:37;10.40;;;7.32;;
12776;SDS011;6452;41.572;23.732;2023-03-22T02:05:03;7.05;;;6.35;;
12776;SDS011;6452;41.572;23.732;2023-03-22T02:07:30;8.70;;;6.95;;
12776;SDS011;6452;41.572;23.732;2023-03-22T02:09:57;11.43;;;9.20;;
12776;SDS011;6452;41.572;23.732;2023-03-22T02:12:30;13.40;;;8.55;;
12776;SDS011;6452;41.572;23.732;2023-03-22T02:15:08;14.00;;;9.25;;
12776;SDS011;6452;41.572;23.732;2023-03-22T02:31:10;5.05;;;4.55;;
12776;SDS011;6452;41.572;23.732;2023-03-22T02:44:15;7.55;;;5.43;;
12776;SDS011;6452;41.572;23.732;2023-03-22T02:51:59;5.60;;;5.10;;
12776;SDS011;6452;41.572;23.732;2023-03-22T02:54:32;14.30;;;10.57;;
12776;SDS011;6452;41.572;23.732;2023-03-22T02:57:15;13.50;;;10.15;;
12776;SDS011;6452;41.572;23.732;2023-03-22T03:00:00;11.63;;;8.10;;
12776;SDS011;6452;41.572;23.732;2023-03-22T03:02:50;7.15;;;6.45;;
12776;SDS011;6452;41.572;23.732;2023-03-22T03:05:17;6.47;;;5.82;;
12776;SDS011;6452;41.572;23.732;2023-03-22T03:08:02;7.60;;;5.90;;
12776;SDS011;6452;41.572;23.732;2023-03-22T03:10:28;6.75;;;6.15;;
12776;SDS011;6452;41.572;23.732;2023-03-22T03:13:15;8.75;;;7.00;;
12776;SDS011;6452;41.572;23.732;2023-03-22T03:15:41;8.38;;;7.07;;
12776;SDS011;6452;41.572;23.732;2023-03-22T03:23:44;9.25;;;7.53;;
12776;SDS011;6452;41.572;23.732;2023-03-22T03:29:01;6.70;;;6.00;;
12776;SDS011;6452;41.572;23.732;2023-03-22T03:34:28;5.68;;;5.18;;
12776;SDS011;6452;41.572;23.732;2023-03-22T03:36:56;5.82;;;5.32;;
12776;SDS011;6452;41.572;23.732;2023-03-22T03:39:31;6.78;;;5.35;;
12776;SDS011;6452;41.572;23.732;2023-03-22T03:42:00;5.60;;;5.15;;
12776;SDS011;6452;41.572;23.732;2023-03-22T03:44:26;7.53;;;5.50;;
12776;SDS011;6452;41.572;23.732;2023-03-22T03:46:52;6.22;;;5.60;;
12776;SDS011;6452;41.572;23.732;2023-03-22T03:49:19;6.28;;;5.65;;
12776;SDS011;6452;41.572;23.732;2023-03-22T03:51:50;6.10;;;5.60;;
12776;SDS011;6452;41.572;23.732;2023-03-22T03:54:16;7.32;;;6.40;;
12776;SDS011;6452;41.572;23.732;2023-03-22T03:56:42;6.82;;;6.13;;
12776;SDS011;6452;41.572;23.732;2023-03-22T03:59:08;6.57;;;5.88;;
12776;SDS011;6452;41.572;23.732;2023-03-22T04:01:34;7.32;;;6.63;;
12776;SDS011;6452;41.572;23.732;2023-03-22T04:04:00;6.65;;;6.03;;
12776;SDS011;6452;41.572;23.732;2023-03-22T04:06:27;6.75;;;6.15;;
12776;SDS011;6452;41.572;23.732;2023-03-22T04:08:53;6.80;;;6.07;;
12776;SDS011;6452;41.572;23.732;2023-03-22T04:11:21;6.85;;;6.00;;
12776;SDS011;6452;41.572;23.732;2023-03-22T04:13:46;5.82;;;5.15;;
12776;SDS011;6452;41.572;23.732;2023-03-22T04:16:13;7.50;;;5.90;;
12776;SDS011;6452;41.572;23.732;2023-03-22T04:18:39;6.30;;;5.70;;
12776;SDS011;6452;41.572;23.732;2023-03-22T04:21:05;7.65;;;6.43;;
12776;SDS011;6452;41.572;23.732;2023-03-22T04:23:32;22.02;;;17.05;;
12776;SDS011;6452;41.572;23.732;2023-03-22T04:25:58;16.67;;;11.98;;
12776;SDS011;6452;41.572;23.732;2023-03-22T04:28:25;10.43;;;7.90;;
12776;SDS011;6452;41.572;23.732;2023-03-22T04:30:51;9.57;;;8.57;;
12776;SDS011;6452;41.572;23.732;2023-03-22T04:33:18;31.38;;;24.38;;
12776;SDS011;6452;41.572;23.732;2023-03-22T04:35:44;64.18;;;50.08;;
12776;SDS011;6452;41.572;23.732;2023-03-22T04:38:12;58.28;;;46.15;;
12776;SDS011;6452;41.572;23.732;2023-03-22T04:40:39;42.28;;;33.05;;
12776;SDS011;6452;41.572;23.732;2023-03-22T04:43:11;27.55;;;21.67;;
12776;SDS011;6452;41.572;23.732;2023-03-22T04:45:37;29.17;;;23.58;;
12776;SDS011;6452;41.572;23.732;2023-03-22T04:48:03;31.42;;;21.05;;
12776;SDS011;6452;41.572;23.732;2023-03-22T04:50:29;23.63;;;18.83;;
12776;SDS011;6452;41.572;23.732;2023-03-22T04:52:55;23.52;;;18.35;;
12776;SDS011;6452;41.572;23.732;2023-03-22T04:55:22;23.35;;;17.90;;
12776;SDS011;6452;41.572;23.732;2023-03-22T04:57:48;18.25;;;14.50;;
12776;SDS011;6452;41.572;23.732;2023-03-22T05:00:15;15.80;;;12.73;;
12776;SDS011;6452;41.572;23.732;2023-03-22T05:02:43;19.17;;;14.65;;
12776;SDS011;6452;41.572;23.732;2023-03-22T05:05:09;16.45;;;14.60;;
12776;SDS011;6452;41.572;23.732;2023-03-22T05:07:35;18.80;;;15.15;;
12776;SDS011;6452;41.572;23.732;2023-03-22T05:10:01;19.45;;;16.17;;
12776;SDS011;6452;41.572;23.732;2023-03-22T05:12:28;27.10;;;22.38;;
12776;SDS011;6452;41.572;23.732;2023-03-22T05:14:54;33.30;;;27.20;;
12776;SDS011;6452;41.572;23.732;2023-03-22T05:17:21;27.05;;;21.52;;
12776;SDS011;6452;41.572;23.732;2023-03-22T05:19:46;20.58;;;17.80;;
12776;SDS011;6452;41.572;23.732;2023-03-22T05:22:12;21.30;;;17.58;;
12776;SDS011;6452;41.572;23.732;2023-03-22T05:24:38;23.70;;;18.63;;
12776;SDS011;6452;41.572;23.732;2023-03-22T05:27:05;34.40;;;26.00;;
12776;SDS011;6452;41.572;23.732;2023-03-22T05:29:31;53.10;;;36.92;;
12776;SDS011;6452;41.572;23.732;2023-03-22T05:32:02;71.15;;;51.05;;
12776;SDS011;6452;41.572;23.732;2023-03-22T05:34:27;65.72;;;46.83;;
12776;SDS011;6452;41.572;23.732;2023-03-22T05:37:00;36.60;;;28.33;;
12776;SDS011;6452;41.572;23.732;2023-03-22T05:39:26;26.98;;;22.75;;
12776;SDS011;6452;41.572;23.732;2023-03-22T05:41:52;25.52;;;21.30;;
12776;SDS011;6452;41.572;23.732;2023-03-22T05:44:19;23.85;;;19.30;;
12776;SDS011;6452;41.572;23.732;2023-03-22T05:46:45;20.27;;;18.00;;
12776;SDS011;6452;41.572;23.732;2023-03-22T05:49:11;22.80;;;19.48;;
12776;SDS011;6452;41.572;23.732;2023-03-22T05:51:37;24.73;;;21.27;;
12776;SDS011;6452;41.572;23.732;2023-03-22T05:54:07;30.33;;;24.08;;
12776;SDS011;6452;41.572;23.732;2023-03-22T05:56:33;18.92;;;16.92;;
12776;SDS011;6452;41.572;23.732;2023-03-22T05:58:59;18.77;;;14.02;;
12776;SDS011;6452;41.572;23.732;2023-03-22T06:01:26;15.75;;;12.35;;
12776;SDS011;6452;41.572;23.732;2023-03-22T06:03:52;16.50;;;13.00;;
12776;SDS011;6452;41.572;23.732;2023-03-22T06:06:18;13.50;;;11.85;;
12776;SDS011;6452;41.572;23.732;2023-03-22T06:08:45;13.30;;;11.98;;
12776;SDS011;6452;41.572;23.732;2023-03-22T06:11:11;18.42;;;14.23;;
12776;SDS011;6452;41.572;23.732;2023-03-22T06:13:37;11.95;;;10.75;;
12776;SDS011;6452;41.572;23.732;2023-03-22T06:16:03;13.43;;;11.90;;
12776;SDS011;6452;41.572;23.732;2023-03-22T06:18:30;7.53;;;6.82;;
12776;SDS011;6452;41.572;23.732;2023-03-22T06:20:56;7.13;;;6.53;;
12776;SDS011;6452;41.572;23.732;2023-03-22T06:23:22;9.95;;;7.72;;
12776;SDS011;6452;41.572;23.732;2023-03-22T06:25:47;8.40;;;7.70;;
12776;SDS011;6452;41.572;23.732;2023-03-22T06:28:13;8.73;;;7.78;;
12776;SDS011;6452;41.572;23.732;2023-03-22T06:30:44;12.30;;;10.07;;
12776;SDS011;6452;41.572;23.732;2023-03-22T06:33:11;10.98;;;9.98;;
12776;SDS011;6452;41.572;23.732;2023-03-22T06:35:36;12.00;;;10.77;;
12776;SDS011;6452;41.572;23.732;2023-03-22T06:38:02;14.27;;;12.77;;
12776;SDS011;6452;41.572;23.732;2023-03-22T06:40:28;15.43;;;13.48;;
12776;SDS011;6452;41.572;23.732;2023-03-22T06:42:58;19.55;;;16.48;;
12776;SDS011;6452;41.572;23.732;2023-03-22T06:45:24;20.48;;;18.10;;
12776;SDS011;6452;41.572;23.732;2023-03-22T06:47:51;18.45;;;16.23;;
12776;SDS011;6452;41.572;23.732;2023-03-22T06:50:17;17.52;;;15.55;;
12776;SDS011;6452;41.572;23.732;2023-03-22T06:52:43;17.90;;;16.00;;
12776;SDS011;6452;41.572;23.732;2023-03-22T06:55:09;18.88;;;16.42;;
12776;SDS011;6452;41.572;23.732;2023-03-22T06:57:35;21.60;;;15.38;;
12776;SDS011;6452;41.572;23.732;2023-03-22T07:00:02;15.65;;;13.65;;
12776;SDS011;6452;41.572;23.732;2023-03-22T07:02:29;13.95;;;12.55;;
12776;SDS011;6452;41.572;23.732;2023-03-22T07:04:55;13.68;;;12.27;;
12776;SDS011;6452;41.572;23.732;2023-03-22T07:07:22;12.63;;;11.38;;
12776;SDS011;6452;41.572;23.732;2023-03-22T07:09:48;10.63;;;9.63;;
12776;SDS011;6452;41.572;23.732;2023-03-22T07:12:14;10.93;;;9.82;;
12776;SDS011;6452;41.572;23.732;2023-03-22T07:14:41;12.35;;;9.98;;
12776;SDS011;6452;41.572;23.732;2023-03-22T07:17:07;12.68;;;10.02;;
12776;SDS011;6452;41.572;23.732;2023-03-22T07:19:33;8.98;;;8.15;;
12776;SDS011;6452;41.572;23.732;2023-03-22T07:21:59;9.82;;;8.90;;
12776;SDS011;6452;41.572;23.732;2023-03-22T07:24:25;10.18;;;8.95;;
12776;SDS011;6452;41.572;23.732;2023-03-22T07:26:52;9.88;;;8.98;;
12776;SDS011;6452;41.572;23.732;2023-03-22T07:29:18;8.95;;;8.15;;
12776;SDS011;6452;41.572;23.732;2023-03-22T07:31:44;10.02;;;8.73;;
12776;SDS011;6452;41.572;23.732;2023-03-22T07:34:10;9.52;;;8.63;;
12776;SDS011;6452;41.572;23.732;2023-03-22T07:36:36;9.00;;;7.75;;
12776;SDS011;6452;41.572;23.732;2023-03-22T07:39:02;8.35;;;7.55;;
12776;SDS011;6452;41.572;23.732;2023-03-22T07:41:30;8.32;;;7.38;;
12776;SDS011;6452;41.572;23.732;2023-03-22T07:43:56;7.32;;;6.70;;
12776;SDS011;6452;41.572;23.732;2023-03-22T07:46:23;7.15;;;6.45;;
12776;SDS011;6452;41.572;23.732;2023-03-22T07:48:49;6.90;;;6.30;;
12776;SDS011;6452;41.572;23.732;2023-03-22T07:51:15;6.95;;;6.35;;
12776;SDS011;6452;41.572;23.732;2023-03-22T07:53:43;6.60;;;5.93;;
12776;SDS011;6452;41.572;23.732;2023-03-22T07:56:09;6.13;;;5.72;;
12776;SDS011;6452;41.572;23.732;2023-03-22T07:58:36;7.60;;;6.90;;
12776;SDS011;6452;41.572;23.732;2023-03-22T08:01:02;7.20;;;6.60;;
12776;SDS011;6452;41.572;23.732;2023-03-22T08:03:28;7.95;;;7.15;;
12776;SDS011;6452;41.572;23.732;2023-03-22T08:05:54;7.57;;;6.95;;
12776;SDS011;6452;41.572;23.732;2023-03-22T08:08:23;7.32;;;6.50;;
12776;SDS011;6452;41.572;23.732;2023-03-22T08:10:50;7.93;;;7.18;;
12776;SDS011;6452;41.572;23.732;2023-03-22T08:13:17;13.43;;;10.45;;
12776;SDS011;6452;41.572;23.732;2023-03-22T08:15:43;8.85;;;8.02;;
12776;SDS011;6452;41.572;23.732;2023-03-22T08:18:09;15.43;;;12.15;;
12776;SDS011;6452;41.572;23.732;2023-03-22T08:20:35;8.40;;;7.60;;
12776;SDS011;6452;41.572;23.732;2023-03-22T08:23:02;7.15;;;6.55;;
12776;SDS011;6452;41.572;23.732;2023-03-22T08:25:28;5.53;;;5.03;;
12776;SDS011;6452;41.572;23.732;2023-03-22T08:27:54;5.68;;;5.28;;
12776;SDS011;6452;41.572;23.732;2023-03-22T08:30:20;5.63;;;5.00;;
12776;SDS011;6452;41.572;23.732;2023-03-22T08:32:47;5.50;;;5.10;;
12776;SDS011;6452;41.572;23.732;2023-03-22T08:35:13;8.35;;;5.07;;
12776;SDS011;6452;41.572;23.732;2023-03-22T08:37:40;5.97;;;5.15;;
12776;SDS011;6452;41.572;23.732;2023-03-22T08:40:07;5.13;;;4.70;;
12776;SDS011;6452;41.572;23.732;2023-03-22T08:42:34;4.60;;;4.30;;
12776;SDS011;6452;41.572;23.732;2023-03-22T08:45:00;4.93;;;4.50;;
12776;SDS011;6452;41.572;23.732;2023-03-22T08:47:27;5.00;;;4.60;;
12776;SDS011;6452;41.572;23.732;2023-03-22T08:49:54;4.80;;;4.40;;
12776;SDS011;6452;41.572;23.732;2023-03-22T08:52:20;5.40;;;4.63;;
12776;SDS011;6452;41.572;23.732;2023-03-22T08:54:46;4.40;;;4.05;;
12776;SDS011;6452;41.572;23.732;2023-03-22T08:57:12;5.45;;;4.95;;
12776;SDS011;6452;41.572;23.732;2023-03-22T08:59:39;4.82;;;4.43;;
12776;SDS011;6452;41.572;23.732;2023-03-22T09:02:06;4.75;;;4.35;;
12776;SDS011;6452;41.572;23.732;2023-03-22T09:04:31;6.50;;;5.30;;
12776;SDS011;6452;41.572;23.732;2023-03-22T09:06:58;4.68;;;4.25;;
12776;SDS011;6452;41.572;23.732;2023-03-22T09:09:24;4.60;;;4.30;;
12776;SDS011;6452;41.572;23.732;2023-03-22T09:11:50;5.85;;;4.65;;
12776;SDS011;6452;41.572;23.732;2023-03-22T09:14:16;5.45;;;4.95;;
12776;SDS011;6452;41.572;23.732;2023-03-22T09:16:42;6.15;;;5.55;;
12776;SDS011;6452;41.572;23.732;2023-03-22T09:19:09;13.43;;;10.40;;
12776;SDS011;6452;41.572;23.732;2023-03-22T09:21:36;8.10;;;7.25;;
12776;SDS011;6452;41.572;23.732;2023-03-22T09:24:02;6.93;;;6.32;;
12776;SDS011;6452;41.572;23.732;2023-03-22T09:26:28;5.78;;;5.28;;
12776;SDS011;6452;41.572;23.732;2023-03-22T09:28:54;3.72;;;3.42;;
12776;SDS011;6452;41.572;23.732;2023-03-22T09:31:20;3.97;;;3.67;;
12776;SDS011;6452;41.572;23.732;2023-03-22T09:33:46;3.47;;;3.28;;
12776;SDS011;6452;41.572;23.732;2023-03-22T09:36:12;3.55;;;3.22;;
12776;SDS011;6452;41.572;23.732;2023-03-22T09:38:38;3.00;;;2.80;;
12776;SDS011;6452;41.572;23.732;2023-03-22T09:43:39;2.75;;;2.63;;
12776;SDS011;6452;41.572;23.732;2023-03-22T09:46:09;3.08;;;2.88;;
12776;SDS011;6452;41.572;23.732;2023-03-22T09:48:38;2.97;;;2.85;;
12776;SDS011;6452;41.572;23.732;2023-03-22T09:51:06;3.28;;;3.00;;
12776;SDS011;6452;41.572;23.732;2023-03-22T09:53:35;2.40;;;2.30;;
12776;SDS011;6452;41.572;23.732;2023-03-22T10:06:19;2.08;;;2.03;;
12776;SDS011;6452;41.572;23.732;2023-03-22T10:11:23;2.22;;;2.13;;
12776;SDS011;6452;41.572;23.732;2023-03-22T10:14:01;2.35;;;2.25;;
12776;SDS011;6452;41.572;23.732;2023-03-22T10:16:33;1.85;;;1.85;;
12776;SDS011;6452;41.572;23.732;2023-03-22T10:19:15;2.10;;;2.10;;
12776;SDS011;6452;41.572;23.732;2023-03-22T10:21:49;2.65;;;2.53;;
12776;SDS011;6452;41.572;23.732;2023-03-22T10:24:23;2.22;;;2.00;;
12776;SDS011;6452;41.572;23.732;2023-03-22T10:26:51;1.95;;;1.95;;
12776;SDS011;6452;41.572;23.732;2023-03-22T10:29:22;1.77;;;1.70;;
12776;SDS011;6452;41.572;23.732;2023-03-22T10:31:53;3.03;;;2.83;;
12776;SDS011;6452;41.572;23.732;2023-03-22T10:34:21;1.45;;;1.42;;
12776;SDS011;6452;41.572;23.732;2023-03-22T10:36:52;1.90;;;1.83;;
12776;SDS011;6452;41.572;23.732;2023-03-22T10:39:27;1.60;;;1.60;;
12776;SDS011;6452;41.572;23.732;2023-03-22T10:42:15;1.63;;;1.20;;
12776;SDS011;6452;41.572;23.732;2023-03-22T10:44:49;1.80;;;1.80;;
12776;SDS011;6452;41.572;23.732;2023-03-22T10:47:16;2.03;;;2.03;;
12776;SDS011;6452;41.572;23.732;2023-03-22T10:49:44;1.65;;;1.65;;
12776;SDS011;6452;41.572;23.732;2023-03-22T10:54:38;1.70;;;1.70;;
12776;SDS011;6452;41.572;23.732;2023-03-22T10:57:04;1.60;;;1.60;;
12776;SDS011;6452;41.572;23.732;2023-03-22T11:02:18;1.88;;;1.88;;
12776;SDS011;6452;41.572;23.732;2023-03-22T11:04:48;2.30;;;2.20;;
12776;SDS011;6452;41.572;23.732;2023-03-22T11:07:15;2.03;;;1.92;;
12776;SDS011;6452;41.572;23.732;2023-03-22T11:09:56;2.20;;;2.10;;
12776;SDS011;6452;41.572;23.732;2023-03-22T11:12:22;2.70;;;2.60;;
12776;SDS011;6452;41.572;23.732;2023-03-22T11:14:48;4.15;;;2.67;;
12776;SDS011;6452;41.572;23.732;2023-03-22T11:17:19;4.50;;;2.75;;
12776;SDS011;6452;41.572;23.732;2023-03-22T11:22:25;2.35;;;2.20;;
12776;SDS011;6452;41.572;23.732;2023-03-22T11:24:57;2.85;;;2.65;;
12776;SDS011;6452;41.572;23.732;2023-03-22T11:27:26;2.50;;;2.40;;
12776;SDS011;6452;41.572;23.732;2023-03-22T11:29:53;2.15;;;2.05;;
12776;SDS011;6452;41.572;23.732;2023-03-22T11:32:28;3.35;;;3.25;;
12776;SDS011;6452;41.572;23.732;2023-03-22T11:34:58;2.20;;;2.20;;
12776;SDS011;6452;41.572;23.732;2023-03-22T11:37:25;2.08;;;1.98;;
12776;SDS011;6452;41.572;23.732;2023-03-22T11:39:52;2.45;;;2.40;;
12776;SDS011;6452;41.572;23.732;2023-03-22T11:42:23;4.28;;;3.88;;
12776;SDS011;6452;41.572;23.732;2023-03-22T11:44:50;3.20;;;2.92;;
12776;SDS011;6452;41.572;23.732;2023-03-22T11:47:16;2.55;;;2.35;;
12776;SDS011;6452;41.572;23.732;2023-03-22T11:52:14;10.85;;;10.05;;
12776;SDS011;6452;41.572;23.732;2023-03-22T11:54:53;2.40;;;2.20;;
12776;SDS011;6452;41.572;23.732;2023-03-22T11:57:20;2.08;;;2.08;;
12776;SDS011;6452;41.572;23.732;2023-03-22T12:02:17;2.20;;;2.17;;
12776;SDS011;6452;41.572;23.732;2023-03-22T12:04:45;2.40;;;2.30;;
12776;SDS011;6452;41.572;23.732;2023-03-22T12:07:13;2.08;;;2.05;;
12776;SDS011;6452;41.572;23.732;2023-03-22T12:12:08;1.67;;;1.67;;
12776;SDS011;6452;41.572;23.732;2023-03-22T12:14:51;2.80;;;2.70;;
12776;SDS011;6452;41.572;23.732;2023-03-22T12:17:20;4.07;;;3.78;;
12776;SDS011;6452;41.572;23.732;2023-03-22T12:19:53;2.00;;;1.90;;
12776;SDS011;6452;41.572;23.732;2023-03-22T12:22:44;2.50;;;2.40;;
12776;SDS011;6452;41.572;23.732;2023-03-22T12:25:23;2.53;;;2.42;;
12776;SDS011;6452;41.572;23.732;2023-03-22T12:28:24;2.70;;;2.60;;
12776;SDS011;6452;41.572;23.732;2023-03-22T12:30:42;3.90;;;2.30;;
12776;SDS011;6452;41.572;23.732;2023-03-22T12:33:20;2.28;;;2.17;;
12776;SDS011;6452;41.572;23.732;2023-03-22T12:35:47;2.30;;;2.15;;
12776;SDS011;6452;41.572;23.732;2023-03-22T12:40:41;2.10;;;2.10;;
12776;SDS011;6452;41.572;23.732;2023-03-22T12:43:20;2.72;;;2.58;;
12776;SDS011;6452;41.572;23.732;2023-03-22T12:45:49;1.92;;;1.92;;
12776;SDS011;6452;41.572;23.732;2023-03-22T12:48:27;2.28;;;2.17;;
12776;SDS011;6452;41.572;23.732;2023-03-22T12:51:11;2.65;;;2.53;;
12776;SDS011;6452;41.572;23.732;2023-03-22T12:53:41;2.33;;;2.33;;
12776;SDS011;6452;41.572;23.732;2023-03-22T12:56:09;2.83;;;2.70;;
12776;SDS011;6452;41.572;23.732;2023-03-22T12:58:36;2.67;;;2.58;;
12776;SDS011;6452;41.572;23.732;2023-03-22T13:01:16;2.70;;;2.60;;
12776;SDS011;6452;41.572;23.732;2023-03-22T13:03:45;2.80;;;2.70;;
12776;SDS011;6452;41.572;23.732;2023-03-22T13:11:43;3.28;;;3.08;;
12776;SDS011;6452;41.572;23.732;2023-03-22T13:14:11;2.63;;;2.53;;
12776;SDS011;6452;41.572;23.732;2023-03-22T13:17:09;2.50;;;2.50;;
12776;SDS011;6452;41.572;23.732;2023-03-22T13:19:32;2.67;;;2.58;;
12776;SDS011;6452;41.572;23.732;2023-03-22T13:22:15;2.80;;;2.70;;
12776;SDS011;6452;41.572;23.732;2023-03-22T13:24:59;2.83;;;2.72;;
12776;SDS011;6452;41.572;23.732;2023-03-22T13:27:35;3.08;;;2.88;;
12776;SDS011;6452;41.572;23.732;2023-03-22T13:30:03;3.17;;;2.97;;
12776;SDS011;6452;41.572;23.732;2023-03-22T13:32:31;3.30;;;3.10;;
12776;SDS011;6452;41.572;23.732;2023-03-22T13:35:02;3.28;;;3.08;;
12776;SDS011;6452;41.572;23.732;2023-03-22T13:37:29;4.63;;;4.30;;
12776;SDS011;6452;41.572;23.732;2023-03-22T13:40:10;4.13;;;3.80;;
12776;SDS011;6452;41.572;23.732;2023-03-22T13:42:38;3.58;;;3.38;;
12776;SDS011;6452;41.572;23.732;2023-03-22T13:45:16;4.63;;;4.32;;
12776;SDS011;6452;41.572;23.732;2023-03-22T13:48:08;3.67;;;3.47;;
12776;SDS011;6452;41.572;23.732;2023-03-22T13:50:36;3.80;;;3.60;;
12776;SDS011;6452;41.572;23.732;2023-03-22T13:53:03;4.22;;;4.00;;
12776;SDS011;6452;41.572;23.732;2023-03-22T13:58:30;4.38;;;4.10;;
12776;SDS011;6452;41.572;23.732;2023-03-22T14:01:16;4.75;;;4.32;;
12776;SDS011;6452;41.572;23.732;2023-03-22T14:03:45;4.88;;;4.47;;
12776;SDS011;6452;41.572;23.732;2023-03-22T14:08:44;7.68;;;4.80;;
12776;SDS011;6452;41.572;23.732;2023-03-22T14:11:19;5.65;;;5.22;;
12776;SDS011;6452;41.572;23.732;2023-03-22T14:14:08;5.13;;;4.72;;
12776;SDS011;6452;41.572;23.732;2023-03-22T14:19:01;4.00;;;3.80;;
12776;SDS011;6452;41.572;23.732;2023-03-22T14:21:30;4.07;;;3.78;;
12776;SDS011;6452;41.572;23.732;2023-03-22T14:23:57;5.18;;;4.78;;
12776;SDS011;6452;41.572;23.732;2023-03-22T14:26:35;4.50;;;4.20;;
12776;SDS011;6452;41.572;23.732;2023-03-22T14:29:09;4.45;;;4.15;;
12776;SDS011;6452;41.572;23.732;2023-03-22T14:31:38;4.18;;;3.97;;
12776;SDS011;6452;41.572;23.732;2023-03-22T14:34:09;6.85;;;6.25;;
12776;SDS011;6452;41.572;23.732;2023-03-22T14:36:37;5.90;;;5.40;;
12776;SDS011;6452;41.572;23.732;2023-03-22T14:39:05;5.07;;;4.68;;
12776;SDS011;6452;41.572;23.732;2023-03-22T14:41:32;10.50;;;5.78;;
12776;SDS011;6452;41.572;23.732;2023-03-22T14:43:59;9.63;;;6.40;;
12776;SDS011;6452;41.572;23.732;2023-03-22T14:46:32;6.10;;;5.50;;
12776;SDS011;6452;41.572;23.732;2023-03-22T14:48:59;4.60;;;4.30;;
12776;SDS011;6452;41.572;23.732;2023-03-22T14:51:32;4.63;;;4.20;;
12776;SDS011;6452;41.572;23.732;2023-03-22T14:54:05;4.57;;;4.20;;
12776;SDS011;6452;41.572;23.732;2023-03-22T14:56:39;6.28;;;5.82;;
12776;SDS011;6452;41.572;23.732;2023-03-22T14:59:10;9.15;;;8.02;;
12776;SDS011;6452;41.572;23.732;2023-03-22T15:01:37;35.25;;;17.77;;
12776;SDS011;6452;41.572;23.732;2023-03-22T15:04:08;11.05;;;8.93;;
12776;SDS011;6452;41.572;23.732;2023-03-22T15:06:40;12.23;;;9.75;;
12776;SDS011;6452;41.572;23.732;2023-03-22T15:09:06;12.65;;;10.57;;
12776;SDS011;6452;41.572;23.732;2023-03-22T15:11:33;10.40;;;9.23;;
12776;SDS011;6452;41.572;23.732;2023-03-22T15:14:00;10.18;;;9.02;;
12776;SDS011;6452;41.572;23.732;2023-03-22T15:16:27;12.40;;;10.68;;
12776;SDS011;6452;41.572;23.732;2023-03-22T15:18:55;7.82;;;7.13;;
12776;SDS011;6452;41.572;23.732;2023-03-22T15:21:21;8.68;;;6.97;;
12776;SDS011;6452;41.572;23.732;2023-03-22T15:23:51;6.90;;;6.30;;
12776;SDS011;6452;41.572;23.732;2023-03-22T15:26:21;6.32;;;5.70;;
12776;SDS011;6452;41.572;23.732;2023-03-22T15:31:19;9.15;;;8.15;;
12776;SDS011;6452;41.572;23.732;2023-03-22T15:33:46;4.38;;;4.07;;
12776;SDS011;6452;41.572;23.732;2023-03-22T15:36:15;3.53;;;3.33;;
12776;SDS011;6452;41.572;23.732;2023-03-22T15:38:42;4.30;;;4.00;;
12776;SDS011;6452;41.572;23.732;2023-03-22T15:41:18;3.45;;;3.13;;
12776;SDS011;6452;41.572;23.732;2023-03-22T15:43:45;2.40;;;2.30;;
12776;SDS011;6452;41.572;23.732;2023-03-22T15:46:14;3.40;;;3.00;;
12776;SDS011;6452;41.572;23.732;2023-03-22T15:51:13;3.88;;;3.67;;
12776;SDS011;6452;41.572;23.732;2023-03-22T15:53:40;3.10;;;2.90;;
12776;SDS011;6452;41.572;23.732;2023-03-22T15:56:16;4.68;;;4.28;;
12776;SDS011;6452;41.572;23.732;2023-03-22T15:58:50;3.85;;;3.55;;
12776;SDS011;6452;41.572;23.732;2023-03-22T16:01:17;7.93;;;6.40;;
12776;SDS011;6452;41.572;23.732;2023-03-22T16:03:44;7.38;;;6.65;;
12776;SDS011;6452;41.572;23.732;2023-03-22T16:06:12;5.35;;;4.95;;
12776;SDS011;6452;41.572;23.732;2023-03-22T16:08:38;5.55;;;5.00;;
12776;SDS011;6452;41.572;23.732;2023-03-22T16:11:04;8.77;;;7.88;;
12776;SDS011;6452;41.572;23.732;2023-03-22T16:13:31;6.28;;;5.78;;
12776;SDS011;6452;41.572;23.732;2023-03-22T16:15:59;7.95;;;6.75;;
12776;SDS011;6452;41.572;23.732;2023-03-22T16:18:25;8.15;;;6.85;;
12776;SDS011;6452;41.572;23.732;2023-03-22T16:20:51;10.70;;;9.70;;
12776;SDS011;6452;41.572;23.732;2023-03-22T16:23:19;3.80;;;3.50;;